Main page
METAR-TAF:

METAR-TAF

Airports :

King Abdulaziz Air Base

Dhahran, Saudi Arabia

latitude: 26-16N, longitude: 050-09E, elevation: 26 m

Current weather observation

The report was made 1 hour and 57 minutes ago, at 00:00 UTC
Wind 12 kt from the Northwest
Temperature 19°C
Humidity 60%
Pressure 1016 hPa
Visibility 10 km or more
no clouds below 1500 m and no cumulonimbus

METAR: OEDR 190000Z 31012KT CAVOK 19/11 Q1016 NOSIG

Time: 04:57 (01:57 UTC)

Forecast

The report was made 5 hours and 47 minutes ago, at 20:10 UTC
Forecast valid from 19 at 00 UTC to 20 at 06 UTC
Wind 10 kt from the Northwest with gusts up to 18 kt
Visibility 10 km or more
no clouds below 1500 m and no cumulonimbus

TAF: OEDR 182010Z 1900/2006 32010G18KT CAVOK

Weather observations and forecasts of more than 4000 airports (METAR and TAF reports).

The available stations are represented by yellow and red dots on the map.

Hover mouse over dot to see the name of the station.

Then click to see weather observations and forecasts.

To change the map : click on the green buttons with a black cross to zoom in, on the green button with a dash to zoom out, or on the green arrows for adjacent maps.


METAR-TAF: